sensor_id;sensor_type;location;lat;lon;timestamp;pressure;altitude;pressure_sealevel;temperature;humidity
14232;BME280;7200;52.194;9.900;2023-05-08T00:00:24;101045.22;;;11.30;100.00
14232;BME280;7200;52.194;9.900;2023-05-08T00:02:49;101063.84;;;11.27;100.00
14232;BME280;7200;52.194;9.900;2023-05-08T00:05:15;101055.16;;;11.22;100.00
14232;BME280;7200;52.194;9.900;2023-05-08T00:07:40;101071.16;;;11.17;100.00
14232;BME280;7200;52.194;9.900;2023-05-08T00:10:07;101079.47;;;11.03;100.00
14232;BME280;7200;52.194;9.900;2023-05-08T00:12:33;101094.97;;;11.16;100.00
14232;BME280;7200;52.194;9.900;2023-05-08T00:14:59;101111.97;;;11.37;100.00
14232;BME280;7200;52.194;9.900;2023-05-08T00:17:24;101094.78;;;11.53;100.00
14232;BME280;7200;52.194;9.900;2023-05-08T00:19:49;101068.34;;;11.23;100.00
14232;BME280;7200;52.194;9.900;2023-05-08T00:22:15;101089.84;;;11.41;100.00
14232;BME280;7200;52.194;9.900;2023-05-08T00:24:40;101074.28;;;11.30;100.00
14232;BME280;7200;52.194;9.900;2023-05-08T00:27:05;101084.72;;;11.36;100.00
14232;BME280;7200;52.194;9.900;2023-05-08T00:29:33;101095.38;;;11.63;100.00
14232;BME280;7200;52.194;9.900;2023-05-08T00:31:58;101091.94;;;11.59;100.00
14232;BME280;7200;52.194;9.900;2023-05-08T00:34:23;101075.31;;;11.56;100.00
14232;BME280;7200;52.194;9.900;2023-05-08T00:36:49;101063.31;;;11.45;100.00
14232;BME280;7200;52.194;9.900;2023-05-08T00:39:14;101054.69;;;11.39;100.00
14232;BME280;7200;52.194;9.900;2023-05-08T00:41:39;101065.81;;;11.48;100.00
14232;BME280;7200;52.194;9.900;2023-05-08T00:44:05;101055.91;;;11.27;100.00
14232;BME280;7200;52.194;9.900;2023-05-08T00:46:30;101078.72;;;11.29;100.00
14232;BME280;7200;52.194;9.900;2023-05-08T00:48:56;101072.81;;;11.21;100.00
14232;BME280;7200;52.194;9.900;2023-05-08T00:51:21;101065.94;;;11.16;100.00
14232;BME280;7200;52.194;9.900;2023-05-08T00:53:47;101061.78;;;11.05;100.00
14232;BME280;7200;52.194;9.900;2023-05-08T00:56:13;101083.78;;;11.37;100.00
14232;BME280;7200;52.194;9.900;2023-05-08T00:58:40;101091.41;;;11.48;100.00
14232;BME280;7200;52.194;9.900;2023-05-08T01:01:06;101087.72;;;11.54;100.00
14232;BME280;7200;52.194;9.900;2023-05-08T01:03:32;101061.78;;;11.37;100.00
14232;BME280;7200;52.194;9.900;2023-05-08T01:06:00;101076.56;;;11.44;100.00
14232;BME280;7200;52.194;9.900;2023-05-08T01:08:26;101071.16;;;11.47;100.00
14232;BME280;7200;52.194;9.900;2023-05-08T01:11:08;101086.56;;;11.62;100.00
14232;BME280;7200;52.194;9.900;2023-05-08T01:19:26;101063.84;;;11.57;100.00
14232;BME280;7200;52.194;9.900;2023-05-08T01:24:44;101044.22;;;11.64;100.00
14232;BME280;7200;52.194;9.900;2023-05-08T01:27:35;101036.81;;;11.47;100.00
14232;BME280;7200;52.194;9.900;2023-05-08T01:32:54;101041.97;;;11.52;100.00
14232;BME280;7200;52.194;9.900;2023-05-08T01:35:42;101035.13;;;11.44;100.00
14232;BME280;7200;52.194;9.900;2023-05-08T01:38:15;101022.06;;;11.40;100.00
14232;BME280;7200;52.194;9.900;2023-05-08T01:43:34;101014.69;;;11.21;100.00
14232;BME280;7200;52.194;9.900;2023-05-08T01:46:05;101000.50;;;10.94;100.00
14232;BME280;7200;52.194;9.900;2023-05-08T01:48:34;101017.59;;;10.81;100.00
14232;BME280;7200;52.194;9.900;2023-05-08T01:51:11;101046.03;;;11.04;100.00
14232;BME280;7200;52.194;9.900;2023-05-08T01:53:42;101052.00;;;11.09;100.00
14232;BME280;7200;52.194;9.900;2023-05-08T01:56:13;101045.16;;;11.02;100.00
14232;BME280;7200;52.194;9.900;2023-05-08T01:58:42;101030.09;;;10.76;100.00
14232;BME280;7200;52.194;9.900;2023-05-08T02:01:08;101057.13;;;10.84;100.00
14232;BME280;7200;52.194;9.900;2023-05-08T02:03:35;101052.13;;;10.73;100.00
14232;BME280;7200;52.194;9.900;2023-05-08T02:06:03;101052.03;;;10.78;100.00
14232;BME280;7200;52.194;9.900;2023-05-08T02:08:31;101032.50;;;10.50;100.00
14232;BME280;7200;52.194;9.900;2023-05-08T02:10:59;101054.38;;;10.56;100.00
14232;BME280;7200;52.194;9.900;2023-05-08T02:13:26;101050.19;;;10.47;100.00
14232;BME280;7200;52.194;9.900;2023-05-08T02:15:54;101049.69;;;10.32;100.00
14232;BME280;7200;52.194;9.900;2023-05-08T02:18:22;101055.00;;;10.31;100.00
14232;BME280;7200;52.194;9.900;2023-05-08T02:20:50;101058.50;;;10.30;100.00
14232;BME280;7200;52.194;9.900;2023-05-08T02:23:17;101063.88;;;10.27;100.00
14232;BME280;7200;52.194;9.900;2023-05-08T02:25:45;101070.66;;;10.37;100.00
14232;BME280;7200;52.194;9.900;2023-05-08T02:28:11;101055.22;;;10.20;100.00
14232;BME280;7200;52.194;9.900;2023-05-08T02:30:37;101080.84;;;10.15;100.00
14232;BME280;7200;52.194;9.900;2023-05-08T02:33:07;101095.25;;;10.38;100.00
14232;BME280;7200;52.194;9.900;2023-05-08T02:35:34;101077.69;;;10.38;100.00
14232;BME280;7200;52.194;9.900;2023-05-08T02:38:01;101090.50;;;10.52;100.00
14232;BME280;7200;52.194;9.900;2023-05-08T02:40:28;101066.63;;;10.57;100.00
14232;BME280;7200;52.194;9.900;2023-05-08T02:42:55;101064.88;;;10.57;100.00
14232;BME280;7200;52.194;9.900;2023-05-08T02:45:24;101039.94;;;10.36;100.00
14232;BME280;7200;52.194;9.900;2023-05-08T02:48:07;101046.63;;;10.13;100.00
14232;BME280;7200;52.194;9.900;2023-05-08T02:50:39;101034.69;;;9.99;100.00
14232;BME280;7200;52.194;9.900;2023-05-08T02:53:11;101048.84;;;9.94;100.00
14232;BME280;7200;52.194;9.900;2023-05-08T02:55:52;101043.56;;;9.94;100.00
14232;BME280;7200;52.194;9.900;2023-05-08T03:01:39;101049.59;;;9.98;100.00
14232;BME280;7200;52.194;9.900;2023-05-08T03:04:08;101060.47;;;10.22;100.00
14232;BME280;7200;52.194;9.900;2023-05-08T03:06:40;101071.97;;;10.55;100.00
14232;BME280;7200;52.194;9.900;2023-05-08T03:09:13;101033.50;;;10.46;100.00
14232;BME280;7200;52.194;9.900;2023-05-08T03:11:42;101015.78;;;10.17;100.00
14232;BME280;7200;52.194;9.900;2023-05-08T03:14:10;101022.94;;;10.12;100.00
14232;BME280;7200;52.194;9.900;2023-05-08T03:16:38;101064.63;;;10.32;100.00
14232;BME280;7200;52.194;9.900;2023-05-08T03:19:21;101081.72;;;10.53;100.00
14232;BME280;7200;52.194;9.900;2023-05-08T03:21:50;101077.03;;;10.64;100.00
14232;BME280;7200;52.194;9.900;2023-05-08T03:24:17;101056.22;;;10.52;100.00
14232;BME280;7200;52.194;9.900;2023-05-08T03:26:44;101029.44;;;10.33;100.00
14232;BME280;7200;52.194;9.900;2023-05-08T03:29:12;101036.56;;;10.28;100.00
14232;BME280;7200;52.194;9.900;2023-05-08T03:31:38;101022.91;;;10.13;100.00
14232;BME280;7200;52.194;9.900;2023-05-08T03:34:05;101057.44;;;10.39;100.00
14232;BME280;7200;52.194;9.900;2023-05-08T03:36:32;101046.22;;;10.30;100.00
14232;BME280;7200;52.194;9.900;2023-05-08T03:38:58;101020.47;;;10.04;100.00
14232;BME280;7200;52.194;9.900;2023-05-08T03:41:24;101043.19;;;10.10;100.00
14232;BME280;7200;52.194;9.900;2023-05-08T03:43:50;101029.22;;;10.06;100.00
14232;BME280;7200;52.194;9.900;2023-05-08T03:46:16;101010.59;;;9.77;100.00
14232;BME280;7200;52.194;9.900;2023-05-08T03:48:42;101051.56;;;9.90;100.00
14232;BME280;7200;52.194;9.900;2023-05-08T03:51:08;101029.00;;;9.78;100.00
14232;BME280;7200;52.194;9.900;2023-05-08T03:53:34;101031.91;;;9.66;100.00
14232;BME280;7200;52.194;9.900;2023-05-08T03:55:59;101055.25;;;9.83;100.00
14232;BME280;7200;52.194;9.900;2023-05-08T03:58:43;101076.59;;;10.09;100.00
14232;BME280;7200;52.194;9.900;2023-05-08T04:04:05;101065.81;;;9.81;100.00
14232;BME280;7200;52.194;9.900;2023-05-08T04:06:49;101063.63;;;9.63;100.00
14232;BME280;7200;52.194;9.900;2023-05-08T04:10:05;101085.19;;;9.80;100.00
14232;BME280;7200;52.194;9.900;2023-05-08T04:12:41;101102.84;;;10.14;100.00
14232;BME280;7200;52.194;9.900;2023-05-08T04:15:13;101089.88;;;10.05;100.00
14232;BME280;7200;52.194;9.900;2023-05-08T04:17:42;101081.75;;;10.14;100.00
14232;BME280;7200;52.194;9.900;2023-05-08T04:20:13;101108.50;;;10.36;100.00
14232;BME280;7200;52.194;9.900;2023-05-08T04:22:41;101108.84;;;10.57;100.00
14232;BME280;7200;52.194;9.900;2023-05-08T04:25:09;101117.19;;;10.76;100.00
14232;BME280;7200;52.194;9.900;2023-05-08T04:27:36;101099.28;;;10.87;100.00
14232;BME280;7200;52.194;9.900;2023-05-08T04:30:02;101099.16;;;10.91;100.00
14232;BME280;7200;52.194;9.900;2023-05-08T04:32:29;101106.66;;;11.07;100.00
14232;BME280;7200;52.194;9.900;2023-05-08T04:34:55;101079.78;;;10.93;100.00
14232;BME280;7200;52.194;9.900;2023-05-08T04:37:30;101086.84;;;10.90;100.00
14232;BME280;7200;52.194;9.900;2023-05-08T04:39:56;101088.38;;;10.99;100.00
14232;BME280;7200;52.194;9.900;2023-05-08T04:42:21;101108.22;;;11.14;100.00
14232;BME280;7200;52.194;9.900;2023-05-08T04:44:48;101083.81;;;11.06;100.00
14232;BME280;7200;52.194;9.900;2023-05-08T04:47:13;101056.28;;;10.49;100.00
14232;BME280;7200;52.194;9.900;2023-05-08T04:49:39;101063.78;;;10.31;100.00
14232;BME280;7200;52.194;9.900;2023-05-08T04:52:04;101123.75;;;10.94;100.00
14232;BME280;7200;52.194;9.900;2023-05-08T04:54:30;101099.13;;;10.93;100.00
14232;BME280;7200;52.194;9.900;2023-05-08T04:56:56;101077.66;;;10.73;100.00
14232;BME280;7200;52.194;9.900;2023-05-08T04:59:21;101122.88;;;10.93;100.00
14232;BME280;7200;52.194;9.900;2023-05-08T05:01:49;101069.38;;;10.54;100.00
14232;BME280;7200;52.194;9.900;2023-05-08T05:04:14;101107.91;;;10.61;100.00
14232;BME280;7200;52.194;9.900;2023-05-08T05:06:39;101105.38;;;10.55;100.00
14232;BME280;7200;52.194;9.900;2023-05-08T05:09:05;101150.72;;;11.38;100.00
14232;BME280;7200;52.194;9.900;2023-05-08T05:11:30;101175.22;;;11.74;100.00
14232;BME280;7200;52.194;9.900;2023-05-08T05:13:56;101124.44;;;11.32;100.00
14232;BME280;7200;52.194;9.900;2023-05-08T05:16:21;101129.66;;;11.35;100.00
14232;BME280;7200;52.194;9.900;2023-05-08T05:18:46;101109.75;;;11.23;100.00
14232;BME280;7200;52.194;9.900;2023-05-08T05:21:12;101138.38;;;11.38;100.00
14232;BME280;7200;52.194;9.900;2023-05-08T05:23:37;101128.38;;;11.48;100.00
14232;BME280;7200;52.194;9.900;2023-05-08T05:26:03;101162.63;;;11.82;100.00
14232;BME280;7200;52.194;9.900;2023-05-08T05:28:28;101130.72;;;11.59;100.00
14232;BME280;7200;52.194;9.900;2023-05-08T05:30:53;101115.38;;;11.72;100.00
14232;BME280;7200;52.194;9.900;2023-05-08T05:33:19;101058.59;;;10.94;100.00
14232;BME280;7200;52.194;9.900;2023-05-08T05:35:44;101084.34;;;10.86;100.00
14232;BME280;7200;52.194;9.900;2023-05-08T05:38:10;101120.91;;;11.00;100.00
14232;BME280;7200;52.194;9.900;2023-05-08T05:40:35;101138.88;;;11.20;100.00
14232;BME280;7200;52.194;9.900;2023-05-08T05:43:00;101113.31;;;11.20;100.00
14232;BME280;7200;52.194;9.900;2023-05-08T05:45:26;101124.50;;;10.99;100.00
14232;BME280;7200;52.194;9.900;2023-05-08T05:47:51;101166.38;;;11.44;100.00
14232;BME280;7200;52.194;9.900;2023-05-08T05:50:18;101165.25;;;11.53;100.00
14232;BME280;7200;52.194;9.900;2023-05-08T05:52:45;101133.41;;;11.26;100.00
14232;BME280;7200;52.194;9.900;2023-05-08T05:55:10;101131.94;;;11.47;100.00
14232;BME280;7200;52.194;9.900;2023-05-08T05:57:36;101121.41;;;11.14;100.00
14232;BME280;7200;52.194;9.900;2023-05-08T06:00:02;101144.38;;;11.43;100.00
14232;BME280;7200;52.194;9.900;2023-05-08T06:02:28;101180.31;;;11.80;100.00
14232;BME280;7200;52.194;9.900;2023-05-08T06:04:53;101137.88;;;11.55;100.00
14232;BME280;7200;52.194;9.900;2023-05-08T06:07:18;101154.78;;;11.79;100.00
14232;BME280;7200;52.194;9.900;2023-05-08T06:09:45;101154.84;;;11.78;100.00
14232;BME280;7200;52.194;9.900;2023-05-08T06:12:10;101140.25;;;11.64;100.00
14232;BME280;7200;52.194;9.900;2023-05-08T06:14:36;101164.22;;;11.88;100.00
14232;BME280;7200;52.194;9.900;2023-05-08T06:17:01;101155.31;;;11.92;100.00
14232;BME280;7200;52.194;9.900;2023-05-08T06:19:26;101138.16;;;11.76;100.00
14232;BME280;7200;52.194;9.900;2023-05-08T06:21:52;101110.19;;;11.37;100.00
14232;BME280;7200;52.194;9.900;2023-05-08T06:24:18;101138.28;;;11.71;100.00
14232;BME280;7200;52.194;9.900;2023-05-08T06:26:43;101145.97;;;11.79;100.00
14232;BME280;7200;52.194;9.900;2023-05-08T06:29:09;101154.91;;;11.75;100.00
14232;BME280;7200;52.194;9.900;2023-05-08T06:31:34;101161.84;;;11.79;100.00
14232;BME280;7200;52.194;9.900;2023-05-08T06:33:59;101190.06;;;12.38;100.00
14232;BME280;7200;52.194;9.900;2023-05-08T06:36:25;101150.94;;;12.19;100.00
14232;BME280;7200;52.194;9.900;2023-05-08T06:38:51;101156.09;;;12.24;100.00
14232;BME280;7200;52.194;9.900;2023-05-08T06:41:16;101166.25;;;12.38;100.00
14232;BME280;7200;52.194;9.900;2023-05-08T06:43:41;101139.44;;;12.20;100.00
14232;BME280;7200;52.194;9.900;2023-05-08T06:46:07;101156.56;;;12.37;100.00
14232;BME280;7200;52.194;9.900;2023-05-08T06:48:32;101187.22;;;12.71;100.00
14232;BME280;7200;52.194;9.900;2023-05-08T06:50:57;101176.22;;;12.83;100.00
14232;BME280;7200;52.194;9.900;2023-05-08T06:53:23;101178.22;;;13.01;100.00
14232;BME280;7200;52.194;9.900;2023-05-08T06:55:48;101144.78;;;12.99;100.00
14232;BME280;7200;52.194;9.900;2023-05-08T06:58:13;101152.97;;;13.16;100.00
14232;BME280;7200;52.194;9.900;2023-05-08T07:00:39;101098.09;;;12.96;100.00
14232;BME280;7200;52.194;9.900;2023-05-08T07:03:04;101125.19;;;13.03;100.00
14232;BME280;7200;52.194;9.900;2023-05-08T07:05:29;101118.94;;;13.05;100.00
14232;BME280;7200;52.194;9.900;2023-05-08T07:07:55;101121.78;;;12.99;100.00
14232;BME280;7200;52.194;9.900;2023-05-08T07:10:20;101109.75;;;12.91;100.00
14232;BME280;7200;52.194;9.900;2023-05-08T07:12:48;101128.88;;;12.99;100.00
14232;BME280;7200;52.194;9.900;2023-05-08T07:15:13;101116.63;;;12.96;100.00
14232;BME280;7200;52.194;9.900;2023-05-08T07:17:38;101157.84;;;13.29;100.00
14232;BME280;7200;52.194;9.900;2023-05-08T07:20:04;101165.31;;;13.42;100.00
14232;BME280;7200;52.194;9.900;2023-05-08T07:22:30;101170.59;;;13.68;100.00
14232;BME280;7200;52.194;9.900;2023-05-08T07:24:55;101163.84;;;13.82;100.00
14232;BME280;7200;52.194;9.900;2023-05-08T07:27:20;101140.34;;;13.95;100.00
14232;BME280;7200;52.194;9.900;2023-05-08T07:29:46;101144.50;;;14.02;100.00
14232;BME280;7200;52.194;9.900;2023-05-08T07:32:11;101134.13;;;13.96;100.00
14232;BME280;7200;52.194;9.900;2023-05-08T07:34:36;101158.84;;;14.20;100.00
14232;BME280;7200;52.194;9.900;2023-05-08T07:37:02;101145.56;;;14.20;100.00
14232;BME280;7200;52.194;9.900;2023-05-08T07:39:28;101142.03;;;14.20;100.00
14232;BME280;7200;52.194;9.900;2023-05-08T07:41:53;101096.00;;;13.77;100.00
14232;BME280;7200;52.194;9.900;2023-05-08T07:44:18;101131.94;;;13.84;100.00
14232;BME280;7200;52.194;9.900;2023-05-08T07:46:44;101141.81;;;14.26;100.00
14232;BME280;7200;52.194;9.900;2023-05-08T07:49:09;101149.69;;;14.28;100.00
14232;BME280;7200;52.194;9.900;2023-05-08T07:51:35;101155.66;;;14.55;100.00
14232;BME280;7200;52.194;9.900;2023-05-08T07:54:00;101135.13;;;14.60;100.00
14232;BME280;7200;52.194;9.900;2023-05-08T07:56:25;101151.38;;;14.73;100.00
14232;BME280;7200;52.194;9.900;2023-05-08T07:58:51;101151.66;;;14.67;100.00
14232;BME280;7200;52.194;9.900;2023-05-08T08:01:19;101143.41;;;14.73;100.00
14232;BME280;7200;52.194;9.900;2023-05-08T08:03:45;101123.81;;;14.55;100.00
14232;BME280;7200;52.194;9.900;2023-05-08T08:06:10;101147.75;;;14.75;100.00
14232;BME280;7200;52.194;9.900;2023-05-08T08:08:36;101168.41;;;15.10;100.00
14232;BME280;7200;52.194;9.900;2023-05-08T08:11:01;101177.88;;;15.17;100.00
14232;BME280;7200;52.194;9.900;2023-05-08T08:13:27;101162.75;;;15.38;100.00
14232;BME280;7200;52.194;9.900;2023-05-08T08:15:52;101168.69;;;15.64;100.00
14232;BME280;7200;52.194;9.900;2023-05-08T08:18:17;101090.91;;;15.00;100.00
14232;BME280;7200;52.194;9.900;2023-05-08T08:20:42;101112.09;;;15.02;100.00
14232;BME280;7200;52.194;9.900;2023-05-08T08:23:08;101146.00;;;15.36;100.00
14232;BME280;7200;52.194;9.900;2023-05-08T08:25:33;101139.56;;;15.21;100.00
14232;BME280;7200;52.194;9.900;2023-05-08T08:27:59;101142.50;;;15.35;100.00
14232;BME280;7200;52.194;9.900;2023-05-08T08:30:24;101167.81;;;15.63;100.00
14232;BME280;7200;52.194;9.900;2023-05-08T08:32:49;101170.97;;;15.92;100.00
14232;BME280;7200;52.194;9.900;2023-05-08T08:35:15;101148.78;;;15.91;100.00
14232;BME280;7200;52.194;9.900;2023-05-08T08:37:40;101149.16;;;16.03;100.00
14232;BME280;7200;52.194;9.900;2023-05-08T08:40:06;101155.28;;;16.41;100.00
14232;BME280;7200;52.194;9.900;2023-05-08T08:42:32;101100.47;;;16.01;100.00
14232;BME280;7200;52.194;9.900;2023-05-08T08:44:57;101138.59;;;16.01;100.00
14232;BME280;7200;52.194;9.900;2023-05-08T08:47:30;101107.06;;;16.11;100.00
14232;BME280;7200;52.194;9.900;2023-05-08T08:50:01;101131.06;;;16.28;100.00
14232;BME280;7200;52.194;9.900;2023-05-08T08:55:15;101124.06;;;16.45;100.00
14232;BME280;7200;52.194;9.900;2023-05-08T08:57:49;101148.50;;;16.53;100.00
14232;BME280;7200;52.194;9.900;2023-05-08T09:00:17;101172.63;;;16.86;100.00
14232;BME280;7200;52.194;9.900;2023-05-08T09:02:43;101152.91;;;17.06;100.00
14232;BME280;7200;52.194;9.900;2023-05-08T09:05:10;101117.66;;;16.84;100.00
14232;BME280;7200;52.194;9.900;2023-05-08T09:07:36;101101.00;;;16.61;100.00
14232;BME280;7200;52.194;9.900;2023-05-08T09:10:04;101125.88;;;17.14;100.00
14232;BME280;7200;52.194;9.900;2023-05-08T09:12:30;101127.06;;;16.91;100.00
14232;BME280;7200;52.194;9.900;2023-05-08T09:14:55;101107.09;;;17.16;100.00
14232;BME280;7200;52.194;9.900;2023-05-08T09:17:20;101158.00;;;17.62;100.00
14232;BME280;7200;52.194;9.900;2023-05-08T09:19:48;101073.97;;;17.37;100.00
14232;BME280;7200;52.194;9.900;2023-05-08T09:24:59;101091.06;;;17.00;100.00
14232;BME280;7200;52.194;9.900;2023-05-08T09:27:26;101094.75;;;17.30;100.00
14232;BME280;7200;52.194;9.900;2023-05-08T09:30:12;101066.69;;;17.23;100.00
14232;BME280;7200;52.194;9.900;2023-05-08T09:32:42;101084.72;;;17.36;100.00
14232;BME280;7200;52.194;9.900;2023-05-08T09:35:09;101062.94;;;17.59;100.00
14232;BME280;7200;52.194;9.900;2023-05-08T09:37:40;101094.03;;;17.76;100.00
14232;BME280;7200;52.194;9.900;2023-05-08T09:40:13;101119.53;;;18.29;100.00
14232;BME280;7200;52.194;9.900;2023-05-08T09:42:38;101091.53;;;18.51;100.00
14232;BME280;7200;52.194;9.900;2023-05-08T09:45:04;101123.28;;;18.57;100.00
14232;BME280;7200;52.194;9.900;2023-05-08T09:47:30;101088.81;;;18.97;100.00
14232;BME280;7200;52.194;9.900;2023-05-08T09:52:25;101104.13;;;18.79;100.00
14232;BME280;7200;52.194;9.900;2023-05-08T09:54:58;101108.19;;;18.86;100.00
14232;BME280;7200;52.194;9.900;2023-05-08T09:57:25;101132.97;;;19.48;100.00
14232;BME280;7200;52.194;9.900;2023-05-08T09:59:51;101083.47;;;19.26;100.00
14232;BME280;7200;52.194;9.900;2023-05-08T10:02:24;101090.84;;;19.37;100.00
14232;BME280;7200;52.194;9.900;2023-05-08T10:04:50;101069.53;;;19.21;100.00
14232;BME280;7200;52.194;9.900;2023-05-08T10:07:15;101044.31;;;18.82;100.00
14232;BME280;7200;52.194;9.900;2023-05-08T10:10:00;101022.16;;;19.09;100.00
14232;BME280;7200;52.194;9.900;2023-05-08T10:12:26;100971.34;;;19.09;100.00
14232;BME280;7200;52.194;9.900;2023-05-08T10:14:52;101045.19;;;18.97;100.00
14232;BME280;7200;52.194;9.900;2023-05-08T10:17:24;101087.28;;;19.08;100.00
14232;BME280;7200;52.194;9.900;2023-05-08T10:19:54;101038.66;;;19.30;100.00
14232;BME280;7200;52.194;9.900;2023-05-08T10:22:23;101023.00;;;19.23;100.00
14232;BME280;7200;52.194;9.900;2023-05-08T10:24:52;101063.78;;;19.41;100.00
14232;BME280;7200;52.194;9.900;2023-05-08T10:27:22;101064.75;;;19.26;100.00
14232;BME280;7200;52.194;9.900;2023-05-08T10:29:55;101073.50;;;19.57;100.00
14232;BME280;7200;52.194;9.900;2023-05-08T10:32:23;101061.75;;;19.59;100.00
14232;BME280;7200;52.194;9.900;2023-05-08T10:34:52;101025.47;;;19.26;100.00
14232;BME280;7200;52.194;9.900;2023-05-08T10:37:20;101017.72;;;19.36;100.00
14232;BME280;7200;52.194;9.900;2023-05-08T10:39:46;101018.94;;;19.45;100.00
14232;BME280;7200;52.194;9.900;2023-05-08T10:42:12;101076.16;;;19.71;100.00
14232;BME280;7200;52.194;9.900;2023-05-08T10:44:39;101059.44;;;19.68;100.00
14232;BME280;7200;52.194;9.900;2023-05-08T10:47:13;101035.94;;;19.73;100.00
14232;BME280;7200;52.194;9.900;2023-05-08T10:52:53;101118.84;;;19.74;100.00
14232;BME280;7200;52.194;9.900;2023-05-08T10:55:27;100975.22;;;20.00;100.00
14232;BME280;7200;52.194;9.900;2023-05-08T10:58:09;101030.09;;;19.80;100.00
14232;BME280;7200;52.194;9.900;2023-05-08T11:03:16;100998.94;;;19.65;100.00
14232;BME280;7200;52.194;9.900;2023-05-08T11:05:45;101013.06;;;19.67;100.00
14232;BME280;7200;52.194;9.900;2023-05-08T11:08:16;101031.16;;;19.78;100.00
14232;BME280;7200;52.194;9.900;2023-05-08T11:10:43;101053.13;;;20.10;100.00
14232;BME280;7200;52.194;9.900;2023-05-08T11:13:12;101052.88;;;20.00;100.00
14232;BME280;7200;52.194;9.900;2023-05-08T11:15:39;101002.03;;;19.86;100.00
14232;BME280;7200;52.194;9.900;2023-05-08T11:18:07;100956.69;;;20.10;100.00
14232;BME280;7200;52.194;9.900;2023-05-08T11:20:40;100872.47;;;19.34;100.00
14232;BME280;7200;52.194;9.900;2023-05-08T11:23:22;100982.63;;;19.14;100.00
14232;BME280;7200;52.194;9.900;2023-05-08T11:25:57;101040.84;;;19.23;100.00
14232;BME280;7200;52.194;9.900;2023-05-08T11:28:24;101026.47;;;19.53;100.00
14232;BME280;7200;52.194;9.900;2023-05-08T11:30:54;100949.28;;;19.05;100.00
14232;BME280;7200;52.194;9.900;2023-05-08T11:33:28;100958.41;;;19.30;100.00
14232;BME280;7200;52.194;9.900;2023-05-08T11:35:56;100973.25;;;19.06;100.00
14232;BME280;7200;52.194;9.900;2023-05-08T11:38:33;100991.78;;;19.10;100.00
14232;BME280;7200;52.194;9.900;2023-05-08T11:41:09;100997.19;;;19.22;100.00
14232;BME280;7200;52.194;9.900;2023-05-08T11:46:50;100976.09;;;19.59;100.00
14232;BME280;7200;52.194;9.900;2023-05-08T11:49:17;101012.06;;;19.55;100.00
14232;BME280;7200;52.194;9.900;2023-05-08T11:51:47;100998.44;;;19.31;100.00
14232;BME280;7200;52.194;9.900;2023-05-08T11:54:18;100954.41;;;19.22;100.00
14232;BME280;7200;52.194;9.900;2023-05-08T11:56:51;101057.66;;;19.95;100.00
14232;BME280;7200;52.194;9.900;2023-05-08T11:59:18;101017.19;;;20.00;100.00
14232;BME280;7200;52.194;9.900;2023-05-08T12:01:43;100959.91;;;20.28;100.00
14232;BME280;7200;52.194;9.900;2023-05-08T12:04:11;100994.19;;;20.10;100.00
14232;BME280;7200;52.194;9.900;2023-05-08T12:06:39;101026.75;;;20.17;100.00
14232;BME280;7200;52.194;9.900;2023-05-08T12:09:15;100962.22;;;19.94;100.00
14232;BME280;7200;52.194;9.900;2023-05-08T12:11:42;100949.91;;;19.92;100.00
14232;BME280;7200;52.194;9.900;2023-05-08T12:14:12;100985.88;;;20.40;100.00
14232;BME280;7200;52.194;9.900;2023-05-08T12:16:38;100987.16;;;20.48;100.00
14232;BME280;7200;52.194;9.900;2023-05-08T12:19:09;100974.84;;;20.58;100.00
14232;BME280;7200;52.194;9.900;2023-05-08T12:21:34;100956.19;;;20.31;100.00
14232;BME280;7200;52.194;9.900;2023-05-08T12:24:00;100958.03;;;20.82;100.00
14232;BME280;7200;52.194;9.900;2023-05-08T12:26:25;100984.84;;;20.82;100.00
14232;BME280;7200;52.194;9.900;2023-05-08T12:28:55;101013.91;;;20.88;100.00
14232;BME280;7200;52.194;9.900;2023-05-08T12:31:21;101006.81;;;20.99;100.00
14232;BME280;7200;52.194;9.900;2023-05-08T12:33:47;100979.44;;;20.94;100.00
14232;BME280;7200;52.194;9.900;2023-05-08T12:36:12;100958.72;;;21.09;100.00
14232;BME280;7200;52.194;9.900;2023-05-08T12:38:37;100970.75;;;21.04;100.00
14232;BME280;7200;52.194;9.900;2023-05-08T12:41:03;100977.75;;;20.93;100.00
14232;BME280;7200;52.194;9.900;2023-05-08T12:43:32;100950.44;;;21.12;100.00
14232;BME280;7200;52.194;9.900;2023-05-08T12:45:58;101056.22;;;21.60;100.00
14232;BME280;7200;52.194;9.900;2023-05-08T12:48:23;100977.66;;;21.45;100.00
14232;BME280;7200;52.194;9.900;2023-05-08T12:50:49;100916.44;;;21.37;100.00
14232;BME280;7200;52.194;9.900;2023-05-08T12:53:16;100958.88;;;21.19;100.00
14232;BME280;7200;52.194;9.900;2023-05-08T12:55:50;100911.44;;;21.32;100.00
14232;BME280;7200;52.194;9.900;2023-05-08T12:58:17;100989.03;;;21.23;100.00
14232;BME280;7200;52.194;9.900;2023-05-08T13:00:44;100989.22;;;21.08;100.00
14232;BME280;7200;52.194;9.900;2023-05-08T13:03:12;100979.75;;;21.15;100.00
14232;BME280;7200;52.194;9.900;2023-05-08T13:05:42;100986.97;;;21.39;100.00
14232;BME280;7200;52.194;9.900;2023-05-08T13:08:08;100935.78;;;21.29;100.00
14232;BME280;7200;52.194;9.900;2023-05-08T13:10:52;101036.78;;;21.56;100.00
14232;BME280;7200;52.194;9.900;2023-05-08T13:13:22;100971.97;;;21.36;100.00
14232;BME280;7200;52.194;9.900;2023-05-08T13:15:48;101024.03;;;22.19;100.00
14232;BME280;7200;52.194;9.900;2023-05-08T13:18:14;100957.66;;;22.08;100.00
14232;BME280;7200;52.194;9.900;2023-05-08T13:20:40;100998.31;;;22.04;100.00
14232;BME280;7200;52.194;9.900;2023-05-08T13:23:07;100928.75;;;22.23;100.00
14232;BME280;7200;52.194;9.900;2023-05-08T13:25:34;100988.06;;;22.33;100.00
14232;BME280;7200;52.194;9.900;2023-05-08T13:28:00;100841.69;;;21.79;100.00
14232;BME280;7200;52.194;9.900;2023-05-08T13:30:25;100951.31;;;22.56;100.00